sensor_id;sensor_type;location;lat;lon;timestamp;temperature;humidity
67557;DHT22;54387;53.526;49.300;2023-02-28T00:01:26;0.30;59.60
67557;DHT22;54387;53.526;49.300;2023-02-28T00:03:53;0.40;59.60
67557;DHT22;54387;53.526;49.300;2023-02-28T00:06:19;0.40;59.90
67557;DHT22;54387;53.526;49.300;2023-02-28T00:08:46;0.40;60.00
67557;DHT22;54387;53.526;49.300;2023-02-28T00:11:13;0.30;60.00
67557;DHT22;54387;53.526;49.300;2023-02-28T00:13:41;0.40;60.00
67557;DHT22;54387;53.526;49.300;2023-02-28T00:16:09;0.40;60.00
67557;DHT22;54387;53.526;49.300;2023-02-28T00:18:35;0.40;60.10
67557;DHT22;54387;53.526;49.300;2023-02-28T00:21:02;0.30;60.00
67557;DHT22;54387;53.526;49.300;2023-02-28T00:23:28;0.30;59.90
67557;DHT22;54387;53.526;49.300;2023-02-28T00:25:54;0.30;59.90
67557;DHT22;54387;53.526;49.300;2023-02-28T00:28:20;0.30;59.70
67557;DHT22;54387;53.526;49.300;2023-02-28T00:30:46;0.30;59.60
67557;DHT22;54387;53.526;49.300;2023-02-28T00:33:12;0.30;59.60
67557;DHT22;54387;53.526;49.300;2023-02-28T00:35:38;0.40;59.60
67557;DHT22;54387;53.526;49.300;2023-02-28T00:38:04;0.40;59.60
67557;DHT22;54387;53.526;49.300;2023-02-28T00:40:31;0.30;59.40
67557;DHT22;54387;53.526;49.300;2023-02-28T00:42:57;0.30;59.50
67557;DHT22;54387;53.526;49.300;2023-02-28T00:45:23;0.30;59.60
67557;DHT22;54387;53.526;49.300;2023-02-28T00:47:49;0.30;59.70
67557;DHT22;54387;53.526;49.300;2023-02-28T00:50:16;0.30;59.70
67557;DHT22;54387;53.526;49.300;2023-02-28T00:52:42;0.40;59.70
67557;DHT22;54387;53.526;49.300;2023-02-28T00:55:09;0.40;59.80
67557;DHT22;54387;53.526;49.300;2023-02-28T00:57:35;0.50;59.80
67557;DHT22;54387;53.526;49.300;2023-02-28T01:00:02;0.50;59.50
67557;DHT22;54387;53.526;49.300;2023-02-28T01:02:29;0.50;59.60
67557;DHT22;54387;53.526;49.300;2023-02-28T01:04:55;0.40;59.10
67557;DHT22;54387;53.526;49.300;2023-02-28T01:07:22;0.40;59.00
67557;DHT22;54387;53.526;49.300;2023-02-28T01:09:48;0.40;59.30
67557;DHT22;54387;53.526;49.300;2023-02-28T05:49:56;0.20;54.50
67557;DHT22;54387;53.526;49.300;2023-02-28T05:52:22;0.30;54.30
67557;DHT22;54387;53.526;49.300;2023-02-28T05:54:48;0.30;54.00
67557;DHT22;54387;53.526;49.300;2023-02-28T05:57:15;0.30;53.70
67557;DHT22;54387;53.526;49.300;2023-02-28T05:59:41;0.30;53.70
67557;DHT22;54387;53.526;49.300;2023-02-28T06:02:13;0.40;53.90
67557;DHT22;54387;53.526;49.300;2023-02-28T06:04:40;0.50;54.30
67557;DHT22;54387;53.526;49.300;2023-02-28T06:07:08;0.60;53.70
67557;DHT22;54387;53.526;49.300;2023-02-28T06:09:34;0.70;53.80
67557;DHT22;54387;53.526;49.300;2023-02-28T06:12:01;0.80;53.30
67557;DHT22;54387;53.526;49.300;2023-02-28T06:14:30;0.80;53.50
67557;DHT22;54387;53.526;49.300;2023-02-28T06:16:56;0.90;52.90
67557;DHT22;54387;53.526;49.300;2023-02-28T06:19:22;1.00;52.40
67557;DHT22;54387;53.526;49.300;2023-02-28T06:21:54;1.00;52.70
67557;DHT22;54387;53.526;49.300;2023-02-28T06:24:21;1.00;52.50
67557;DHT22;54387;53.526;49.300;2023-02-28T06:26:48;1.00;52.30
67557;DHT22;54387;53.526;49.300;2023-02-28T06:29:14;1.00;52.50
67557;DHT22;54387;53.526;49.300;2023-02-28T06:31:42;1.00;53.70
67557;DHT22;54387;53.526;49.300;2023-02-28T06:34:09;1.10;53.00
67557;DHT22;54387;53.526;49.300;2023-02-28T06:36:37;1.30;53.20
67557;DHT22;54387;53.526;49.300;2023-02-28T06:39:04;1.50;53.00
67557;DHT22;54387;53.526;49.300;2023-02-28T06:41:30;1.60;52.30
67557;DHT22;54387;53.526;49.300;2023-02-28T06:43:56;1.70;52.20
67557;DHT22;54387;53.526;49.300;2023-02-28T06:46:22;1.90;52.30
67557;DHT22;54387;53.526;49.300;2023-02-28T06:48:49;1.90;51.90
67557;DHT22;54387;53.526;49.300;2023-02-28T06:51:18;1.90;51.40
67557;DHT22;54387;53.526;49.300;2023-02-28T06:53:47;1.80;50.50
67557;DHT22;54387;53.526;49.300;2023-02-28T06:56:14;1.70;50.40
67557;DHT22;54387;53.526;49.300;2023-02-28T06:58:41;1.50;50.40
67557;DHT22;54387;53.526;49.300;2023-02-28T07:01:07;1.40;50.60
67557;DHT22;54387;53.526;49.300;2023-02-28T07:03:36;1.40;51.10
67557;DHT22;54387;53.526;49.300;2023-02-28T07:06:02;1.50;51.40
67557;DHT22;54387;53.526;49.300;2023-02-28T07:08:30;1.60;51.60
67557;DHT22;54387;53.526;49.300;2023-02-28T07:10:57;1.70;51.00
67557;DHT22;54387;53.526;49.300;2023-02-28T07:13:23;1.70;50.90
67557;DHT22;54387;53.526;49.300;2023-02-28T07:15:53;1.80;51.00
67557;DHT22;54387;53.526;49.300;2023-02-28T07:18:19;1.80;50.70
67557;DHT22;54387;53.526;49.300;2023-02-28T07:20:45;1.90;50.70
67557;DHT22;54387;53.526;49.300;2023-02-28T07:23:11;2.10;50.50
67557;DHT22;54387;53.526;49.300;2023-02-28T07:25:37;2.20;51.00
67557;DHT22;54387;53.526;49.300;2023-02-28T07:28:03;2.30;50.20
67557;DHT22;54387;53.526;49.300;2023-02-28T07:30:29;2.50;50.30
67557;DHT22;54387;53.526;49.300;2023-02-28T07:32:55;2.60;49.80
67557;DHT22;54387;53.526;49.300;2023-02-28T07:35:21;2.70;49.30
67557;DHT22;54387;53.526;49.300;2023-02-28T07:37:47;2.70;48.60
67557;DHT22;54387;53.526;49.300;2023-02-28T07:40:13;2.70;49.10
67557;DHT22;54387;53.526;49.300;2023-02-28T07:42:41;2.80;49.50
67557;DHT22;54387;53.526;49.300;2023-02-28T07:45:08;3.00;49.10
67557;DHT22;54387;53.526;49.300;2023-02-28T07:47:37;3.00;48.70
67557;DHT22;54387;53.526;49.300;2023-02-28T07:50:04;3.10;48.20
67557;DHT22;54387;53.526;49.300;2023-02-28T07:52:30;3.00;47.80
67557;DHT22;54387;53.526;49.300;2023-02-28T07:54:56;2.80;48.10
67557;DHT22;54387;53.526;49.300;2023-02-28T07:57:22;2.90;48.50
67557;DHT22;54387;53.526;49.300;2023-02-28T07:59:48;2.80;48.80
67557;DHT22;54387;53.526;49.300;2023-02-28T08:02:14;2.90;49.10
67557;DHT22;54387;53.526;49.300;2023-02-28T08:04:41;2.80;48.80
67557;DHT22;54387;53.526;49.300;2023-02-28T08:07:07;2.70;49.00
67557;DHT22;54387;53.526;49.300;2023-02-28T08:09:33;2.60;49.40
67557;DHT22;54387;53.526;49.300;2023-02-28T08:11:59;2.70;49.70
67557;DHT22;54387;53.526;49.300;2023-02-28T08:14:26;2.70;49.70
67557;DHT22;54387;53.526;49.300;2023-02-28T08:16:52;2.70;49.30
67557;DHT22;54387;53.526;49.300;2023-02-28T08:19:18;2.70;49.10
67557;DHT22;54387;53.526;49.300;2023-02-28T08:21:44;2.70;48.60
67557;DHT22;54387;53.526;49.300;2023-02-28T08:24:15;2.80;48.70
67557;DHT22;54387;53.526;49.300;2023-02-28T08:26:41;2.70;48.10
67557;DHT22;54387;53.526;49.300;2023-02-28T08:29:07;2.70;48.50
67557;DHT22;54387;53.526;49.300;2023-02-28T08:31:33;2.70;48.70
67557;DHT22;54387;53.526;49.300;2023-02-28T08:34:12;2.70;48.50
67557;DHT22;54387;53.526;49.300;2023-02-28T08:36:38;2.60;48.80
67557;DHT22;54387;53.526;49.300;2023-02-28T08:39:04;2.50;49.20
67557;DHT22;54387;53.526;49.300;2023-02-28T08:41:31;2.60;49.50
67557;DHT22;54387;53.526;49.300;2023-02-28T08:43:57;2.70;49.60
67557;DHT22;54387;53.526;49.300;2023-02-28T08:46:23;2.90;49.10
67557;DHT22;54387;53.526;49.300;2023-02-28T08:48:53;3.00;49.00
67557;DHT22;54387;53.526;49.300;2023-02-28T08:51:19;3.10;48.10
67557;DHT22;54387;53.526;49.300;2023-02-28T08:53:52;3.20;48.30
67557;DHT22;54387;53.526;49.300;2023-02-28T08:56:19;3.30;47.90
67557;DHT22;54387;53.526;49.300;2023-02-28T08:58:45;3.40;48.00
67557;DHT22;54387;53.526;49.300;2023-02-28T09:01:12;3.50;47.30
67557;DHT22;54387;53.526;49.300;2023-02-28T09:03:39;3.50;46.70
67557;DHT22;54387;53.526;49.300;2023-02-28T09:06:06;3.40;46.60
67557;DHT22;54387;53.526;49.300;2023-02-28T09:08:32;3.40;47.40
67557;DHT22;54387;53.526;49.300;2023-02-28T09:10:58;3.60;46.80
67557;DHT22;54387;53.526;49.300;2023-02-28T09:13:25;3.40;46.60
67557;DHT22;54387;53.526;49.300;2023-02-28T09:15:52;3.10;46.80
67557;DHT22;54387;53.526;49.300;2023-02-28T09:18:18;2.80;47.10
67557;DHT22;54387;53.526;49.300;2023-02-28T09:20:44;2.70;47.60
67557;DHT22;54387;53.526;49.300;2023-02-28T09:23:11;2.60;47.70
67557;DHT22;54387;53.526;49.300;2023-02-28T09:25:38;2.40;48.10
67557;DHT22;54387;53.526;49.300;2023-02-28T09:28:11;2.30;48.70
67557;DHT22;54387;53.526;49.300;2023-02-28T09:30:38;2.30;48.90
67557;DHT22;54387;53.526;49.300;2023-02-28T09:33:03;2.30;49.20
67557;DHT22;54387;53.526;49.300;2023-02-28T09:35:29;2.40;49.70
67557;DHT22;54387;53.526;49.300;2023-02-28T09:37:56;2.40;49.10
67557;DHT22;54387;53.526;49.300;2023-02-28T09:40:24;2.50;49.60
67557;DHT22;54387;53.526;49.300;2023-02-28T09:42:51;2.70;50.40
67557;DHT22;54387;53.526;49.300;2023-02-28T09:45:33;2.90;49.90
67557;DHT22;54387;53.526;49.300;2023-02-28T09:48:00;3.30;49.90
67557;DHT22;54387;53.526;49.300;2023-02-28T09:50:31;3.90;48.80
67557;DHT22;54387;53.526;49.300;2023-02-28T09:52:59;4.70;47.30
67557;DHT22;54387;53.526;49.300;2023-02-28T09:55:28;5.60;45.30
67557;DHT22;54387;53.526;49.300;2023-02-28T09:57:56;6.60;43.70
67557;DHT22;54387;53.526;49.300;2023-02-28T10:00:30;7.80;41.50
67557;DHT22;54387;53.526;49.300;2023-02-28T10:03:04;8.90;40.10
67557;DHT22;54387;53.526;49.300;2023-02-28T10:05:36;10.00;38.20
67557;DHT22;54387;53.526;49.300;2023-02-28T10:10:51;11.00;34.20
67557;DHT22;54387;53.526;49.300;2023-02-28T10:13:25;11.30;34.30
67557;DHT22;54387;53.526;49.300;2023-02-28T10:15:55;11.30;33.70
67557;DHT22;54387;53.526;49.300;2023-02-28T10:18:24;10.80;33.60
67557;DHT22;54387;53.526;49.300;2023-02-28T10:20:51;10.30;34.00
67557;DHT22;54387;53.526;49.300;2023-02-28T10:26:14;9.80;35.90
67557;DHT22;54387;53.526;49.300;2023-02-28T10:28:42;10.40;35.20
67557;DHT22;54387;53.526;49.300;2023-02-28T10:31:14;11.20;35.80
67557;DHT22;54387;53.526;49.300;2023-02-28T10:33:43;11.70;34.30
67557;DHT22;54387;53.526;49.300;2023-02-28T10:36:15;12.20;33.80
67557;DHT22;54387;53.526;49.300;2023-02-28T10:38:43;13.10;32.90
67557;DHT22;54387;53.526;49.300;2023-02-28T10:41:11;14.20;31.00
67557;DHT22;54387;53.526;49.300;2023-02-28T10:43:39;14.70;28.70
67557;DHT22;54387;53.526;49.300;2023-02-28T10:51:00;14.20;28.00
67557;DHT22;54387;53.526;49.300;2023-02-28T10:58:22;14.20;29.40
67557;DHT22;54387;53.526;49.300;2023-02-28T11:00:49;14.20;28.90
67557;DHT22;54387;53.526;49.300;2023-02-28T11:03:29;14.10;29.40
67557;DHT22;54387;53.526;49.300;2023-02-28T11:05:55;13.50;28.60
67557;DHT22;54387;53.526;49.300;2023-02-28T11:08:21;12.60;29.00
67557;DHT22;54387;53.526;49.300;2023-02-28T11:10:53;11.60;29.70
67557;DHT22;54387;53.526;49.300;2023-02-28T11:13:20;10.70;30.50
67557;DHT22;54387;53.526;49.300;2023-02-28T11:16:07;9.60;31.80
67557;DHT22;54387;53.526;49.300;2023-02-28T11:21:03;8.10;33.70
67557;DHT22;54387;53.526;49.300;2023-02-28T11:23:30;7.60;35.10
67557;DHT22;54387;53.526;49.300;2023-02-28T11:26:01;7.10;35.80
67557;DHT22;54387;53.526;49.300;2023-02-28T11:28:32;6.60;37.10
67557;DHT22;54387;53.526;49.300;2023-02-28T11:33:52;6.50;38.40
67557;DHT22;54387;53.526;49.300;2023-02-28T11:36:25;6.10;38.70
67557;DHT22;54387;53.526;49.300;2023-02-28T11:38:55;5.80;39.40
67557;DHT22;54387;53.526;49.300;2023-02-28T11:41:31;5.60;39.80
67557;DHT22;54387;53.526;49.300;2023-02-28T11:46:42;5.40;40.10
67557;DHT22;54387;53.526;49.300;2023-02-28T11:57:31;4.30;42.60
67557;DHT22;54387;53.526;49.300;2023-02-28T12:00:03;4.30;43.10
67557;DHT22;54387;53.526;49.300;2023-02-28T12:02:38;4.10;43.30
67557;DHT22;54387;53.526;49.300;2023-02-28T12:10:27;3.10;44.90
67557;DHT22;54387;53.526;49.300;2023-02-28T12:15:43;2.60;46.00
67557;DHT22;54387;53.526;49.300;2023-02-28T12:20:53;2.20;47.40
67557;DHT22;54387;53.526;49.300;2023-02-28T12:25:58;1.90;48.80
67557;DHT22;54387;53.526;49.300;2023-02-28T12:28:28;1.70;49.00
67557;DHT22;54387;53.526;49.300;2023-02-28T12:30:58;1.50;49.20
67557;DHT22;54387;53.526;49.300;2023-02-28T12:33:27;1.50;49.40
67557;DHT22;54387;53.526;49.300;2023-02-28T12:35:55;1.40;49.70
67557;DHT22;54387;53.526;49.300;2023-02-28T12:38:26;1.30;51.10
67557;DHT22;54387;53.526;49.300;2023-02-28T12:43:19;1.20;51.00
67557;DHT22;54387;53.526;49.300;2023-02-28T12:45:52;1.00;51.40
67557;DHT22;54387;53.526;49.300;2023-02-28T12:48:27;1.00;51.10
67557;DHT22;54387;53.526;49.300;2023-02-28T12:50:59;0.90;51.30
67557;DHT22;54387;53.526;49.300;2023-02-28T12:56:27;0.70;51.80
67557;DHT22;54387;53.526;49.300;2023-02-28T12:58:50;0.60;52.00
67557;DHT22;54387;53.526;49.300;2023-02-28T13:01:39;0.60;52.60
67557;DHT22;54387;53.526;49.300;2023-02-28T13:07:06;0.60;53.70
67557;DHT22;54387;53.526;49.300;2023-02-28T13:09:37;0.50;53.90
67557;DHT22;54387;53.526;49.300;2023-02-28T13:12:12;0.50;54.30
67557;DHT22;54387;53.526;49.300;2023-02-28T13:14:38;0.50;54.30
67557;DHT22;54387;53.526;49.300;2023-02-28T13:19:39;0.90;54.90
67557;DHT22;54387;53.526;49.300;2023-02-28T13:22:15;1.70;54.90
67557;DHT22;54387;53.526;49.300;2023-02-28T13:24:47;2.60;52.80
67557;DHT22;54387;53.526;49.300;2023-02-28T13:29:40;4.00;49.20
67557;DHT22;54387;53.526;49.300;2023-02-28T13:34:38;4.30;46.70
67557;DHT22;54387;53.526;49.300;2023-02-28T13:39:57;3.90;46.30
67557;DHT22;54387;53.526;49.300;2023-02-28T13:42:33;3.50;46.40
67557;DHT22;54387;53.526;49.300;2023-02-28T13:52:45;2.00;49.00
67557;DHT22;54387;53.526;49.300;2023-02-28T14:08:51;0.40;53.40
67557;DHT22;54387;53.526;49.300;2023-02-28T14:11:32;0.30;54.10
67557;DHT22;54387;53.526;49.300;2023-02-28T14:13:58;0.10;54.70
67557;DHT22;54387;53.526;49.300;2023-02-28T14:16:26;0.00;55.10
67557;DHT22;54387;53.526;49.300;2023-02-28T14:19:01;-0.10;55.80
67557;DHT22;54387;53.526;49.300;2023-02-28T14:21:32;-0.30;56.90
67557;DHT22;54387;53.526;49.300;2023-02-28T14:34:57;-1.00;60.10
67557;DHT22;54387;53.526;49.300;2023-02-28T14:37:28;-1.10;60.20
67557;DHT22;54387;53.526;49.300;2023-02-28T14:39:56;-1.10;60.30
67557;DHT22;54387;53.526;49.300;2023-02-28T14:42:31;-1.20;60.60
67557;DHT22;54387;53.526;49.300;2023-02-28T14:44:57;-1.30;60.60
67557;DHT22;54387;53.526;49.300;2023-02-28T14:47:25;-1.30;60.90
67557;DHT22;54387;53.526;49.300;2023-02-28T14:49:53;-1.40;60.90
67557;DHT22;54387;53.526;49.300;2023-02-28T14:52:20;-1.40;61.10
67557;DHT22;54387;53.526;49.300;2023-02-28T14:54:51;-1.40;61.10
67557;DHT22;54387;53.526;49.300;2023-02-28T14:57:25;-1.50;61.00
67557;DHT22;54387;53.526;49.300;2023-02-28T15:00:25;-1.50;61.10
67557;DHT22;54387;53.526;49.300;2023-02-28T15:02:43;-1.50;61.20
67557;DHT22;54387;53.526;49.300;2023-02-28T15:07:36;-1.60;61.10
67557;DHT22;54387;53.526;49.300;2023-02-28T15:12:35;-1.60;61.30
67557;DHT22;54387;53.526;49.300;2023-02-28T15:15:02;-1.60;61.40
67557;DHT22;54387;53.526;49.300;2023-02-28T15:17:28;-1.70;61.60
67557;DHT22;54387;53.526;49.300;2023-02-28T15:19:54;-1.80;61.60
67557;DHT22;54387;53.526;49.300;2023-02-28T15:22:27;-1.80;61.80
67557;DHT22;54387;53.526;49.300;2023-02-28T15:24:54;-1.90;62.00
67557;DHT22;54387;53.526;49.300;2023-02-28T15:27:26;-2.00;62.20
67557;DHT22;54387;53.526;49.300;2023-02-28T15:29:56;-2.00;62.40
67557;DHT22;54387;53.526;49.300;2023-02-28T15:32:24;-2.00;62.60
67557;DHT22;54387;53.526;49.300;2023-02-28T15:34:51;-2.10;62.70
67557;DHT22;54387;53.526;49.300;2023-02-28T15:40:12;-2.20;62.70
67557;DHT22;54387;53.526;49.300;2023-02-28T15:42:39;-2.20;62.70
67557;DHT22;54387;53.526;49.300;2023-02-28T15:45:05;-2.20;62.80
67557;DHT22;54387;53.526;49.300;2023-02-28T15:47:31;-2.20;62.90
67557;DHT22;54387;53.526;49.300;2023-02-28T15:50:02;-2.20;63.00
67557;DHT22;54387;53.526;49.300;2023-02-28T15:52:33;-2.30;63.00
67557;DHT22;54387;53.526;49.300;2023-02-28T15:55:06;-2.30;63.00
67557;DHT22;54387;53.526;49.300;2023-02-28T15:57:33;-2.30;63.00
67557;DHT22;54387;53.526;49.300;2023-02-28T16:00:00;-2.30;63.00
67557;DHT22;54387;53.526;49.300;2023-02-28T16:02:32;-2.30;62.90
67557;DHT22;54387;53.526;49.300;2023-02-28T16:07:37;-2.20;62.90
67557;DHT22;54387;53.526;49.300;2023-02-28T16:10:04;-2.20;62.90
67557;DHT22;54387;53.526;49.300;2023-02-28T16:12:32;-2.20;62.80
67557;DHT22;54387;53.526;49.300;2023-02-28T16:15:00;-2.20;62.80
67557;DHT22;54387;53.526;49.300;2023-02-28T16:17:29;-2.20;62.70
67557;DHT22;54387;53.526;49.300;2023-02-28T16:19:55;-2.10;62.60
67557;DHT22;54387;53.526;49.300;2023-02-28T16:22:21;-2.10;62.50
67557;DHT22;54387;53.526;49.300;2023-02-28T16:24:48;-2.10;62.40
67557;DHT22;54387;53.526;49.300;2023-02-28T16:27:21;-2.10;62.30
67557;DHT22;54387;53.526;49.300;2023-02-28T16:29:47;-2.10;62.20
67557;DHT22;54387;53.526;49.300;2023-02-28T16:32:14;-2.00;62.10
67557;DHT22;54387;53.526;49.300;2023-02-28T16:34:42;-2.00;61.90
67557;DHT22;54387;53.526;49.300;2023-02-28T16:37:10;-2.00;62.50
67557;DHT22;54387;53.526;49.300;2023-02-28T16:39:37;-2.00;61.80
67557;DHT22;54387;53.526;49.300;2023-02-28T16:42:04;-2.00;61.80
67557;DHT22;54387;53.526;49.300;2023-02-28T16:44:32;-2.00;61.70
67557;DHT22;54387;53.526;49.300;2023-02-28T16:47:02;-2.00;61.70
67557;DHT22;54387;53.526;49.300;2023-02-28T16:49:28;-2.00;61.70
67557;DHT22;54387;53.526;49.300;2023-02-28T16:51:54;-2.00;61.70
67557;DHT22;54387;53.526;49.300;2023-02-28T16:54:21;-2.00;61.70
67557;DHT22;54387;53.526;49.300;2023-02-28T16:56:47;-2.00;61.70
67557;DHT22;54387;53.526;49.300;2023-02-28T16:59:17;-2.00;61.60
67557;DHT22;54387;53.526;49.300;2023-02-28T17:01:44;-2.00;61.60
67557;DHT22;54387;53.526;49.300;2023-02-28T17:04:10;-2.00;61.60
67557;DHT22;54387;53.526;49.300;2023-02-28T17:06:37;-2.00;61.60
67557;DHT22;54387;53.526;49.300;2023-02-28T17:09:03;-1.90;61.60
67557;DHT22;54387;53.526;49.300;2023-02-28T17:11:30;-1.90;61.60
67557;DHT22;54387;53.526;49.300;2023-02-28T17:13:56;-1.90;61.60
67557;DHT22;54387;53.526;49.300;2023-02-28T17:16:23;-1.90;61.60
67557;DHT22;54387;53.526;49.300;2023-02-28T17:18:52;-1.90;61.50
67557;DHT22;54387;53.526;49.300;2023-02-28T17:21:19;-1.90;61.50
67557;DHT22;54387;53.526;49.300;2023-02-28T17:23:45;-1.90;61.50
67557;DHT22;54387;53.526;49.300;2023-02-28T17:26:14;-1.90;61.50
67557;DHT22;54387;53.526;49.300;2023-02-28T17:28:42;-2.00;61.60
67557;DHT22;54387;53.526;49.300;2023-02-28T17:31:10;-2.00;61.60
67557;DHT22;54387;53.526;49.300;2023-02-28T17:33:36;-2.00;61.70
67557;DHT22;54387;53.526;49.300;2023-02-28T17:36:02;-2.00;61.70
67557;DHT22;54387;53.526;49.300;2023-02-28T17:38:28;-2.00;61.60
67557;DHT22;54387;53.526;49.300;2023-02-28T17:40:54;-1.90;61.60
67557;DHT22;54387;53.526;49.300;2023-02-28T17:43:24;-1.90;61.60
67557;DHT22;54387;53.526;49.300;2023-02-28T17:45:51;-1.90;61.50
67557;DHT22;54387;53.526;49.300;2023-02-28T17:48:17;-1.80;61.50
67557;DHT22;54387;53.526;49.300;2023-02-28T17:50:44;-1.90;61.30
67557;DHT22;54387;53.526;49.300;2023-02-28T17:53:10;-1.90;61.30
67557;DHT22;54387;53.526;49.300;2023-02-28T17:55:36;-1.90;61.30
67557;DHT22;54387;53.526;49.300;2023-02-28T17:58:03;-1.90;61.30
67557;DHT22;54387;53.526;49.300;2023-02-28T18:00:29;-1.90;61.30
67557;DHT22;54387;53.526;49.300;2023-02-28T18:02:55;-1.90;61.30
67557;DHT22;54387;53.526;49.300;2023-02-28T18:05:21;-1.80;61.40
67557;DHT22;54387;53.526;49.300;2023-02-28T18:07:47;-1.80;61.30
67557;DHT22;54387;53.526;49.300;2023-02-28T18:10:14;-1.80;61.30
67557;DHT22;54387;53.526;49.300;2023-02-28T18:12:45;-1.80;61.30
67557;DHT22;54387;53.526;49.300;2023-02-28T18:15:12;-1.70;61.20
67557;DHT22;54387;53.526;49.300;2023-02-28T18:17:38;-1.70;61.20
67557;DHT22;54387;53.526;49.300;2023-02-28T18:20:04;-1.70;61.00
67557;DHT22;54387;53.526;49.300;2023-02-28T18:22:31;-1.80;61.00
67557;DHT22;54387;53.526;49.300;2023-02-28T18:24:57;-1.70;61.00
67557;DHT22;54387;53.526;49.300;2023-02-28T18:27:23;-1.80;61.00
67557;DHT22;54387;53.526;49.300;2023-02-28T18:29:50;-1.70;60.80
67557;DHT22;54387;53.526;49.300;2023-02-28T18:32:18;-1.70;60.70
67557;DHT22;54387;53.526;49.300;2023-02-28T18:34:44;-1.70;60.70
67557;DHT22;54387;53.526;49.300;2023-02-28T18:37:09;-1.70;60.70
67557;DHT22;54387;53.526;49.300;2023-02-28T18:39:36;-1.70;60.70
67557;DHT22;54387;53.526;49.300;2023-02-28T18:42:02;-1.70;60.70
67557;DHT22;54387;53.526;49.300;2023-02-28T18:44:28;-1.70;60.40
67557;DHT22;54387;53.526;49.300;2023-02-28T18:46:54;-1.70;60.30
67557;DHT22;54387;53.526;49.300;2023-02-28T18:49:20;-1.70;60.30
67557;DHT22;54387;53.526;49.300;2023-02-28T18:51:46;-1.60;60.50
67557;DHT22;54387;53.526;49.300;2023-02-28T18:54:13;-1.60;60.30
67557;DHT22;54387;53.526;49.300;2023-02-28T18:56:39;-1.60;60.30
67557;DHT22;54387;53.526;49.300;2023-02-28T18:59:09;-1.60;60.30
67557;DHT22;54387;53.526;49.300;2023-02-28T19:01:35;-1.60;60.20
67557;DHT22;54387;53.526;49.300;2023-02-28T19:04:03;-1.50;60.00
67557;DHT22;54387;53.526;49.300;2023-02-28T19:06:30;-1.60;59.90
67557;DHT22;54387;53.526;49.300;2023-02-28T19:08:57;-1.60;60.00
67557;DHT22;54387;53.526;49.300;2023-02-28T19:11:24;-1.70;60.00
67557;DHT22;54387;53.526;49.300;2023-02-28T19:13:50;-1.60;60.10
67557;DHT22;54387;53.526;49.300;2023-02-28T19:16:17;-1.70;60.20
67557;DHT22;54387;53.526;49.300;2023-02-28T19:18:44;-1.70;60.20
67557;DHT22;54387;53.526;49.300;2023-02-28T19:21:11;-1.70;60.20
67557;DHT22;54387;53.526;49.300;2023-02-28T19:23:37;-1.70;60.30
67557;DHT22;54387;53.526;49.300;2023-02-28T19:26:04;-1.70;60.20
67557;DHT22;54387;53.526;49.300;2023-02-28T19:28:31;-1.70;60.20
67557;DHT22;54387;53.526;49.300;2023-02-28T19:30:57;-1.60;60.30
67557;DHT22;54387;53.526;49.300;2023-02-28T19:33:23;-1.60;60.30
67557;DHT22;54387;53.526;49.300;2023-02-28T19:35:49;-1.60;60.20
67557;DHT22;54387;53.526;49.300;2023-02-28T19:38:16;-1.60;60.20
67557;DHT22;54387;53.526;49.300;2023-02-28T19:40:42;-1.60;60.20
67557;DHT22;54387;53.526;49.300;2023-02-28T19:43:08;-1.70;60.20
67557;DHT22;54387;53.526;49.300;2023-02-28T19:45:35;-1.70;60.30
67557;DHT22;54387;53.526;49.300;2023-02-28T19:48:02;-1.70;60.30
67557;DHT22;54387;53.526;49.300;2023-02-28T19:50:28;-1.70;60.30
67557;DHT22;54387;53.526;49.300;2023-02-28T19:52:54;-1.80;60.40
67557;DHT22;54387;53.526;49.300;2023-02-28T19:55:20;-1.80;60.50
67557;DHT22;54387;53.526;49.300;2023-02-28T19:57:46;-1.80;60.60
67557;DHT22;54387;53.526;49.300;2023-02-28T20:00:13;-1.80;60.60
67557;DHT22;54387;53.526;49.300;2023-02-28T20:02:40;-1.70;60.70
67557;DHT22;54387;53.526;49.300;2023-02-28T20:05:06;-1.70;60.60
67557;DHT22;54387;53.526;49.300;2023-02-28T20:07:33;-1.60;60.60
67557;DHT22;54387;53.526;49.300;2023-02-28T20:09:59;-1.60;60.50
67557;DHT22;54387;53.526;49.300;2023-02-28T20:12:25;-1.50;60.50
67557;DHT22;54387;53.526;49.300;2023-02-28T20:14:52;-1.50;60.40
67557;DHT22;54387;53.526;49.300;2023-02-28T20:17:20;-1.50;60.30
67557;DHT22;54387;53.526;49.300;2023-02-28T20:19:47;-1.50;60.30
67557;DHT22;54387;53.526;49.300;2023-02-28T20:22:13;-1.50;60.30
67557;DHT22;54387;53.526;49.300;2023-02-28T20:24:39;-1.50;60.20
67557;DHT22;54387;53.526;49.300;2023-02-28T20:27:05;-1.50;60.20
67557;DHT22;54387;53.526;49.300;2023-02-28T20:29:32;-1.50;60.20
67557;DHT22;54387;53.526;49.300;2023-02-28T20:31:58;-1.50;60.20
67557;DHT22;54387;53.526;49.300;2023-02-28T20:34:24;-1.50;60.20
67557;DHT22;54387;53.526;49.300;2023-02-28T20:36:50;-1.40;60.10
67557;DHT22;54387;53.526;49.300;2023-02-28T20:39:16;-1.40;60.10
67557;DHT22;54387;53.526;49.300;2023-02-28T20:41:42;-1.40;60.20
67557;DHT22;54387;53.526;49.300;2023-02-28T20:44:10;-1.40;60.20
67557;DHT22;54387;53.526;49.300;2023-02-28T20:46:37;-1.40;60.10
67557;DHT22;54387;53.526;49.300;2023-02-28T20:49:03;-1.40;60.20
67557;DHT22;54387;53.526;49.300;2023-02-28T20:51:29;-1.40;60.10
67557;DHT22;54387;53.526;49.300;2023-02-28T20:53:55;-1.40;60.20
67557;DHT22;54387;53.526;49.300;2023-02-28T20:56:21;-1.40;60.20
67557;DHT22;54387;53.526;49.300;2023-02-28T20:58:51;-1.40;60.20
67557;DHT22;54387;53.526;49.300;2023-02-28T21:01:18;-1.40;60.00
67557;DHT22;54387;53.526;49.300;2023-02-28T21:03:48;-1.40;60.60
67557;DHT22;54387;53.526;49.300;2023-02-28T21:06:15;-1.40;60.00
67557;DHT22;54387;53.526;49.300;2023-02-28T21:08:41;-1.40;60.00
67557;DHT22;54387;53.526;49.300;2023-02-28T21:11:08;-1.40;60.00
67557;DHT22;54387;53.526;49.300;2023-02-28T21:13:36;-1.50;60.10
67557;DHT22;54387;53.526;49.300;2023-02-28T21:16:03;-1.40;60.20
67557;DHT22;54387;53.526;49.300;2023-02-28T21:18:30;-1.50;60.10
67557;DHT22;54387;53.526;49.300;2023-02-28T21:21:04;-1.60;60.50
67557;DHT22;54387;53.526;49.300;2023-02-28T21:23:31;-1.70;60.70
67557;DHT22;54387;53.526;49.300;2023-02-28T21:26:04;-1.70;61.00
67557;DHT22;54387;53.526;49.300;2023-02-28T21:28:31;-1.70;61.30
67557;DHT22;54387;53.526;49.300;2023-02-28T21:31:01;-1.70;61.60
67557;DHT22;54387;53.526;49.300;2023-02-28T21:33:27;-1.80;61.80
67557;DHT22;54387;53.526;49.300;2023-02-28T21:38:30;-1.80;62.00
67557;DHT22;54387;53.526;49.300;2023-02-28T21:41:03;-1.80;62.10
67557;DHT22;54387;53.526;49.300;2023-02-28T21:43:30;-1.80;62.10
67557;DHT22;54387;53.526;49.300;2023-02-28T21:45:59;-1.80;62.20
67557;DHT22;54387;53.526;49.300;2023-02-28T21:48:25;-1.80;62.10
67557;DHT22;54387;53.526;49.300;2023-02-28T21:51:01;-1.80;62.10
67557;DHT22;54387;53.526;49.300;2023-02-28T21:53:28;-1.70;61.90